HomeShort term forecast

Short term forecast

Graphical weather forecast for the next 48 hours for Montreal:
Short term forecast
This weather forecast is automatically refreshed every 3 hours.

Hourly Experimental Forecast for the next 48 hours

Overall summary: Mostly cloudy throughout the day.

 Date & Hour   Temp   Feel   Baro   Hum   Speed & Bearing   Wind Gust   Precip.%   Precip.   Visibility   Cloud cover   Conditions 
 04/12/2021 - 15:00  -4.0°C  -7.8°C  1015.2 hPa  73%  9.1 km/h   14.8 km/h  32%  0.04 mm/h  5.2km  100%  Possible Flurries 
 04/12/2021 - 16:00  -4.2°C  -8.0°C  1015.7 hPa  74%  9.2 km/h   14.5 km/h  9%  0.22 mm/h  9.3km  100%  Overcast 
 04/12/2021 - 17:00  -4.6°C  -8.2°C  1016.2 hPa  76%  8.2 km/h   12.6 km/h  6%  0.17 mm/h  10.4km  100%  Overcast 
 04/12/2021 - 18:00  -4.8°C  -8.1°C  1016.6 hPa  76%  7.2 km/h   10.6 km/h  3%  0.06 mm/h  12.1km  99%  Overcast 
 04/12/2021 - 19:00  -4.9°C  -7.4°C  1016.2 hPa  78%  5.5 km/h   8.0 km/h  3%  0.05 mm/h  15.4km  99%  Overcast 
 04/12/2021 - 20:00  -5.3°C  -7.5°C  1016.4 hPa  76%  5.0 km/h   6.7 km/h  2%  0.04 mm/h  14.2km  88%  Overcast 
 04/12/2021 - 21:00  -5.3°C  -7.8°C  1017.4 hPa  76%  5.3 km/h   8.6 km/h  3%  0.07 mm/h  7.3km  93%  Overcast 
 04/12/2021 - 22:00  -5.5°C  -7.9°C  1017.9 hPa  77%  5.2 km/h   9.6 km/h  4%  0.09 mm/h  5.8km  80%  Mostly Cloudy 
 04/12/2021 - 23:00  -5.9°C  -8.9°C  1018.3 hPa  76%  6.3 km/h   12.7 km/h  3%  0.07 mm/h  7.8km  70%  Mostly Cloudy 
 05/12/2021 - 00:00  -5.7°C  -9.8°C  1018.4 hPa  76%  8.8 km/h   22.5 km/h  2%  0.03 mm/h  16.1km  68%  Mostly Cloudy 
 05/12/2021 - 01:00  -5.3°C  -9.6°C  1019.8 hPa  75%  10.1 km/h   26.2 km/h  2%  0.02 mm/h  13.9km  71%  Mostly Cloudy 
 05/12/2021 - 02:00  -5.1°C  -9.9°C  1021.0 hPa  74%  11.7 km/h   25.3 km/h  2%  0.01 mm/h  16.1km  69%  Mostly Cloudy 
 05/12/2021 - 03:00  -5.1°C  -10.3°C  1022.0 hPa  77%  13.1 km/h   28.3 km/h  0%  --  16.1km  29%  Clear 
 05/12/2021 - 04:00  -5.5°C  -10.6°C  1023.4 hPa  77%  12.6 km/h   27.5 km/h  2%  0.01 mm/h  16.1km  26%  Clear 
 05/12/2021 - 05:00  -6.4°C  -11.3°C  1024.4 hPa  78%  11.1 km/h   25.5 km/h  0%  --  16.1km  21%  Clear 
 05/12/2021 - 06:00  -7.1°C  -11.5°C  1025.7 hPa  81%  9.3 km/h   24.2 km/h  0%  --  16.1km  19%  Clear 
 05/12/2021 - 07:00  -7.4°C  -11.4°C  1026.8 hPa  84%  7.9 km/h   21.7 km/h  0%  --  16.1km  40%  Partly Cloudy 
 05/12/2021 - 08:00  -7.2°C  -11.1°C  1027.5 hPa  84%  7.7 km/h   20.8 km/h  0%  --  16.1km  26%  Clear 
 05/12/2021 - 09:00  -6.6°C  -10.4°C  1028.4 hPa  82%  7.9 km/h   18.6 km/h  0%  --  16.1km  37%  Partly Cloudy 
 05/12/2021 - 10:00  -5.8°C  -9.7°C  1029.0 hPa  78%  8.4 km/h   18.2 km/h  0%  --  16.1km  43%  Partly Cloudy 
 05/12/2021 - 11:00  -5.1°C  -8.9°C  1029.2 hPa  75%  8.4 km/h   17.3 km/h  0%  --  16.1km  66%  Mostly Cloudy 
 05/12/2021 - 12:00  -4.4°C  -8.3°C  1029.1 hPa  70%  9.0 km/h   18.1 km/h  0%  --  16.1km  69%  Mostly Cloudy 
 05/12/2021 - 13:00  -3.6°C  -7.3°C  1028.4 hPa  67%  9.2 km/h   19.0 km/h  0%  --  16.1km  73%  Mostly Cloudy 
 05/12/2021 - 14:00  -3.2°C  -6.7°C  1028.3 hPa  66%  8.7 km/h   18.3 km/h  0%  --  16.1km  65%  Mostly Cloudy 
 05/12/2021 - 15:00  -3.1°C  -6.1°C  1028.2 hPa  65%  7.4 km/h   16.7 km/h  0%  --  16.1km  76%  Mostly Cloudy 
 05/12/2021 - 16:00  -3.0°C  -5.7°C  1027.9 hPa  66%  6.4 km/h   15.0 km/h  0%  --  16.1km  83%  Mostly Cloudy 
 05/12/2021 - 17:00  -3.0°C  -5.8°C  1027.4 hPa  65%  6.8 km/h   14.7 km/h  0%  --  16.1km  79%  Mostly Cloudy 
 05/12/2021 - 18:00  -2.9°C  -6.6°C  1026.8 hPa  65%  9.4 km/h   17.3 km/h  0%  --  16.1km  85%  Mostly Cloudy 
 05/12/2021 - 19:00  -3.1°C  -7.4°C  1026.5 hPa  66%  11.7 km/h   22.1 km/h  0%  --  16.1km  94%  Overcast 
 05/12/2021 - 20:00  -2.9°C  -7.6°C  1025.7 hPa  66%  13.2 km/h   26.3 km/h  3%  0.02 mm/h  16.1km  98%  Overcast 
 05/12/2021 - 21:00  -2.7°C  -7.7°C  1025.1 hPa  68%  14.8 km/h   30.6 km/h  8%  0.12 mm/h  13.7km  99%  Overcast 
 05/12/2021 - 22:00  -2.6°C  -8.1°C  1023.6 hPa  72%  17.9 km/h   35.2 km/h  16%  0.28 mm/h  9.4km  100%  Overcast 
 05/12/2021 - 23:00  -2.2°C  -7.9°C  1021.8 hPa  73%  18.9 km/h   40.7 km/h  27%  0.52 mm/h  9.5km  100%  Snow 
 06/12/2021 - 00:00  -2.1°C  -7.8°C  1019.9 hPa  76%  19.9 km/h   40.3 km/h  41%  1.02 mm/h  10.5km  100%  Snow 
 06/12/2021 - 01:00  -1.6°C  -7.3°C  1017.7 hPa  80%  20.5 km/h   43.9 km/h  47%  1.59 mm/h  8.9km  100%  Snow 
 06/12/2021 - 02:00  -0.3°C  -5.9°C  1015.6 hPa  80%  21.5 km/h   46.9 km/h  45%  1.31 mm/h  16.1km  100%  Rain 
 06/12/2021 - 03:00  0.5°C  -4.7°C  1013.6 hPa  82%  20.8 km/h   44.4 km/h  47%  1.23 mm/h  7.8km  100%  Rain 
 06/12/2021 - 04:00  0.7°C  -4.4°C  1011.6 hPa  89%  20.5 km/h   42.4 km/h  60%  1.28 mm/h  5.3km  100%  Rain 
 06/12/2021 - 05:00  1.3°C  -3.3°C  1009.8 hPa  92%  18.0 km/h   38.2 km/h  67%  1.47 mm/h  8.6km  100%  Rain 
 06/12/2021 - 06:00  2.3°C  -2.4°C  1008.3 hPa  95%  20.1 km/h   42.6 km/h  71%  1.59 mm/h  11.6km  100%  Rain 
 06/12/2021 - 07:00  3.6°C  -1.0°C  1006.7 hPa  99%  22.4 km/h   48.8 km/h  83%  1.56 mm/h  16.1km  100%  Rain 
 06/12/2021 - 08:00  4.4°C  -0.1°C  1005.2 hPa  100%  23.3 km/h   49.1 km/h  85%  1.96 mm/h  16.1km  100%  Rain 
 06/12/2021 - 09:00  5.0°C  0.6°C  1003.8 hPa  100%  24.9 km/h   49.0 km/h  84%  1.44 mm/h  16.1km  100%  Rain 
 06/12/2021 - 10:00  6.1°C  1.9°C  1002.2 hPa  97%  25.0 km/h   47.3 km/h  79%  0.79 mm/h  14.6km  100%  Light Rain 
 06/12/2021 - 11:00  7.0°C  3.2°C  1000.0 hPa  94%  24.6 km/h   47.6 km/h  56%  0.39 mm/h  13.8km  100%  Possible Light Rain 
 06/12/2021 - 12:00  8.0°C  4.5°C  997.4 hPa  92%  23.7 km/h   46.5 km/h  54%  0.49 mm/h  16.1km  100%  Possible Light Rain 
 06/12/2021 - 13:00  7.9°C  4.3°C  996.6 hPa  92%  24.7 km/h   49.8 km/h  77%  1.05 mm/h  16.1km  100%  Rain 
 06/12/2021 - 14:00  8.4°C  4.9°C  995.3 hPa  93%  23.9 km/h   52.2 km/h  82%  1.21 mm/h  14.8km  100%  Rain 

 

Past weather and reports

Past weatherFind in this section the past weather conditions, weather archive, graphics, reports and statistics.

Current conditions

Current weather condition for MontrealAll you need to know about the current weather conditions for Montreal. Weather data is updated every 10 minutes.

Weather forecast

Current Montreal weatherSince 2004, celinium.com website has provided accurate weather forecast for Montreal's island.